Pagrindinis puslapis
METAR-TAF:

METAR-TAF

Oro uostai :

Isfahanas, Iranas

platuma: 32-28N, ilguma: 051-43E, Aukštis: 1590 m

Dabartinis oras

Ataskaita buvo paskelbta 21 minutes, ne 07:00 UTC
Vėjas 4 kt iš Rytų/Šiaurės Rytų
Temperatūra 20°C
Drėgmė 10%
Slėgis 1027 hPa
Matomumas: 8000 m

METAR: OIFM 210700Z 06004KT 8000 NSC 20/M13 Q1027 A3033

Laikas: 10:51 (07:21 UTC)

Prognozė

Ataskaita buvo paskelbta 1 valandą ir 51 minutes, ne 05:30 UTC
Prognozė galioja nuo 21 metu 06 UTC su 22 metu 12 UTC
Vėjas 4 kt iš Vakarų/Šiaurės Vakarų
Matomumas: 4000 m
migla
Tapsmas
nuo 21 metu 08 UTC su 21 metu 10 UTC
Matomumas: 2000 m
migla
Tapsmas
nuo 22 metu 08 UTC su 22 metu 10 UTC
Matomumas: 8000 m

TAF: OIFM 210530Z 2106/2212 30004KT 4000 HZ NSC BECMG 2108/2110 8000 NSC BEMG 2201/2203 2000 HZ BECMG 2208/2210 8000 NSC

Orai ataskaitas ir orų prognozės (METAR, TAF).

turimą stotys yra geltonos ir raudonos taškus žemėlapyje.

Perkelti pele per norėdami pamatyti stoties vardą.

Tada spustelėkite, norėdami matyti oro stebėjimo ir prognozės.

Norėdami pakeisti žemėlapį: spustelėkite ant žalios mygtukų su juodo kryžiaus žemyn,; žalią mygtuką su brūkšneliu, jei norite nutolinti; arba žalių rodyklių gretimoms žemėlapius.


METAR-TAF: